Time;durP1;ratioP1;P1;durP2;ratioP2;P2;SDS_P1;SDS_P2;PMS_P1;PMS_P2;Temp;Humidity;BMP_temperature;BMP_pressure;BME280_temperature;BME280_humidity;BME280_pressure;Samples;Min_cycle;Max_cycle;Signal;HPM_P1;HPM_P2
2022/04/28 00:00:41;;;;;;;1.55;1.45;;;16.10;68.10;;;;;;5065561;28;20471;-61
2022/04/28 00:03:07;;;;;;;7.13;1.60;;;16.00;68.10;;;;;;5063562;28;20082;-60
2022/04/28 00:05:33;;;;;;;2.58;1.90;;;16.00;68.20;;;;;;5056481;28;20576;-61
2022/04/28 00:07:58;;;;;;;3.15;1.65;;;16.00;68.30;;;;;;5085520;28;20032;-61
2022/04/28 00:10:24;;;;;;;2.03;1.83;;;16.00;68.30;;;;;;5049967;28;20197;-61
2022/04/28 00:12:50;;;;;;;1.95;1.60;;;15.90;68.30;;;;;;5074979;28;20381;-61
2022/04/28 00:15:15;;;;;;;2.38;1.80;;;15.90;68.40;;;;;;5053387;28;20494;-61
2022/04/28 00:17:41;;;;;;;1.67;1.58;;;15.90;68.50;;;;;;5066634;28;20020;-61
2022/04/28 00:20:07;;;;;;;2.60;1.60;;;15.90;68.40;;;;;;5082213;28;20024;-61
2022/04/28 00:22:33;;;;;;;1.50;1.40;;;15.80;68.40;;;;;;5082968;28;20115;-61
2022/04/28 00:24:58;;;;;;;1.80;1.50;;;15.80;68.40;;;;;;5057861;28;20122;-61
2022/04/28 00:27:24;;;;;;;3.38;1.88;;;15.80;68.50;;;;;;5083100;28;20084;-61
2022/04/28 00:29:49;;;;;;;2.47;1.60;;;15.70;68.60;;;;;;5077099;28;20067;-61
2022/04/28 00:32:15;;;;;;;2.88;1.90;;;15.70;68.50;;;;;;5083431;28;20491;-60
2022/04/28 00:34:41;;;;;;;3.70;1.88;;;15.70;68.70;;;;;;5082172;28;20024;-61
2022/04/28 00:37:08;;;;;;;2.15;1.80;;;15.70;68.70;;;;;;5056326;28;20484;-60
2022/04/28 00:39:33;;;;;;;3.33;1.60;;;15.60;68.70;;;;;;5058376;28;20044;-61
2022/04/28 00:41:59;;;;;;;3.70;1.73;;;15.60;68.80;;;;;;5054930;28;20540;-61
2022/04/28 00:44:24;;;;;;;2.72;2.05;;;15.60;68.90;;;;;;5084175;28;20040;-62
2022/04/28 00:46:50;;;;;;;3.60;1.77;;;15.50;69.00;;;;;;5081539;28;20028;-62
2022/04/28 00:51:59;;;;;;;1.98;1.77;;;15.50;69.00;;;;;;5083843;28;20094;-61
2022/04/28 00:54:26;;;;;;;2.30;1.77;;;15.50;69.20;;;;;;5083485;28;20731;-61
2022/04/28 00:56:51;;;;;;;4.03;1.73;;;15.50;69.20;;;;;;5060547;28;20105;-61
2022/04/28 00:59:17;;;;;;;1.88;1.70;;;15.40;69.20;;;;;;5056514;28;20082;-60
2022/04/28 01:01:42;;;;;;;2.42;1.65;;;15.40;69.30;;;;;;5048119;28;20127;-61
2022/04/28 01:04:08;;;;;;;2.05;1.88;;;15.40;69.40;;;;;;5047526;28;20161;-61
2022/04/28 01:06:33;;;;;;;1.95;1.70;;;15.30;69.50;;;;;;5084322;28;20024;-61
2022/04/28 01:08:59;;;;;;;3.00;1.60;;;15.30;69.60;;;;;;5083816;28;20058;-61
2022/04/28 01:11:26;;;;;;;2.28;1.70;;;15.20;69.60;;;;;;5083229;28;20441;-61
2022/04/28 01:13:51;;;;;;;3.50;2.03;;;15.20;69.70;;;;;;5062580;28;20623;-60
2022/04/28 01:16:17;;;;;;;1.90;1.80;;;15.20;69.80;;;;;;5083571;28;20032;-61
2022/04/28 01:18:42;;;;;;;1.90;1.67;;;15.20;69.90;;;;;;5058258;28;20479;-61
2022/04/28 01:21:08;;;;;;;1.77;1.67;;;15.20;69.80;;;;;;5083713;28;20619;-61
2022/04/28 01:23:34;;;;;;;2.05;1.85;;;15.10;70.00;;;;;;5084728;28;20115;-61
2022/04/28 01:26:00;;;;;;;1.98;1.80;;;15.10;70.00;;;;;;5081989;28;20484;-61
2022/04/28 01:28:27;;;;;;;1.70;1.60;;;15.10;70.00;;;;;;5056984;28;20452;-61
2022/04/28 01:30:52;;;;;;;1.77;1.67;;;15.10;70.00;;;;;;5076928;28;20308;-61
2022/04/28 01:33:18;;;;;;;2.15;1.77;;;15.10;70.10;;;;;;5055626;28;20166;-61
2022/04/28 01:35:43;;;;;;;3.50;2.00;;;15.00;70.10;;;;;;5083982;28;20298;-61
2022/04/28 01:38:09;;;;;;;2.15;1.92;;;15.00;70.10;;;;;;5035909;28;20037;-62
2022/04/28 01:40:35;;;;;;;4.22;1.70;;;15.00;70.20;;;;;;5036606;28;20025;-60
2022/04/28 01:43:00;;;;;;;2.28;1.90;;;14.90;70.20;;;;;;5080338;28;20360;-61
2022/04/28 01:45:26;;;;;;;3.22;2.00;;;14.90;70.40;;;;;;5083047;28;20069;-61
2022/04/28 01:47:51;;;;;;;2.20;2.00;;;14.90;70.40;;;;;;5082050;28;20333;-61
2022/04/28 01:50:17;;;;;;;2.22;1.95;;;14.90;70.50;;;;;;5055631;28;20502;-61
2022/04/28 01:55:26;;;;;;;2.40;1.92;;;14.80;70.60;;;;;;5057210;28;20044;-61
2022/04/28 01:57:52;;;;;;;1.83;1.70;;;14.80;70.70;;;;;;5059972;28;20044;-61
2022/04/28 02:00:17;;;;;;;2.00;1.65;;;14.80;70.80;;;;;;5030749;28;20035;-61
2022/04/28 02:02:43;;;;;;;2.72;1.98;;;14.70;70.70;;;;;;5062325;28;20045;-61
2022/04/28 02:05:09;;;;;;;2.30;2.10;;;14.70;70.70;;;;;;5031557;28;20039;-61
2022/04/28 02:07:35;;;;;;;2.25;2.05;;;14.70;70.80;;;;;;5059438;28;20039;-61
2022/04/28 02:10:01;;;;;;;2.03;1.90;;;14.70;70.90;;;;;;5038264;28;20033;-61
2022/04/28 02:12:26;;;;;;;2.78;2.00;;;14.70;70.90;;;;;;5047711;28;20039;-61
2022/04/28 02:14:53;;;;;;;2.08;1.88;;;14.60;71.00;;;;;;5060532;28;20032;-61
2022/04/28 02:17:19;;;;;;;2.08;1.80;;;14.60;71.10;;;;;;5082049;28;20387;-61
2022/04/28 02:19:45;;;;;;;3.97;2.00;;;14.50;71.10;;;;;;5055541;28;20036;-61
2022/04/28 02:22:10;;;;;;;2.58;2.00;;;14.60;71.90;;;;;;5044763;28;20144;-61
2022/04/28 02:24:36;;;;;;;2.28;2.08;;;14.50;71.30;;;;;;5082732;28;20519;-61
2022/04/28 02:27:01;;;;;;;2.50;2.10;;;14.50;71.30;;;;;;5082119;28;20035;-61
2022/04/28 02:29:27;;;;;;;2.10;1.90;;;14.40;71.40;;;;;;5082054;28;20389;-61
2022/04/28 02:31:52;;;;;;;3.25;2.17;;;14.40;71.50;;;;;;5051528;28;20043;-61
2022/04/28 02:34:18;;;;;;;2.20;2.00;;;14.40;71.60;;;;;;5082308;28;20111;-61
2022/04/28 02:36:43;;;;;;;2.90;2.20;;;14.40;71.60;;;;;;5062325;28;20028;-61
2022/04/28 02:39:12;;;;;;;6.43;2.30;;;14.40;71.70;;;;;;5040035;28;20031;-61
2022/04/28 02:41:38;;;;;;;4.18;2.22;;;14.30;71.70;;;;;;5078902;28;20494;-61
2022/04/28 02:44:04;;;;;;;2.80;2.28;;;14.30;71.70;;;;;;5060102;28;20028;-61
2022/04/28 02:46:31;;;;;;;3.05;2.65;;;14.30;71.80;;;;;;5063666;28;20479;-61
2022/04/28 02:48:56;;;;;;;2.97;2.53;;;14.30;71.80;;;;;;5082218;28;20046;-61
2022/04/28 02:51:22;;;;;;;4.72;2.70;;;14.30;71.90;;;;;;5080536;28;20074;-62
2022/04/28 02:53:47;;;;;;;2.67;2.20;;;14.20;71.90;;;;;;5060034;28;20028;-61
2022/04/28 02:56:13;;;;;;;2.70;2.45;;;14.20;72.00;;;;;;5080785;28;20033;-61
2022/04/28 02:58:38;;;;;;;2.90;2.60;;;14.20;72.00;;;;;;5082856;28;20032;-61
2022/04/28 03:01:04;;;;;;;2.35;2.13;;;14.20;72.10;;;;;;5078683;28;20618;-62
2022/04/28 03:03:32;;;;;;;3.67;2.42;;;14.20;72.20;;;;;;5084496;28;20370;-60
2022/04/28 03:11:27;;;;;;;2.50;2.30;;;14.10;72.20;;;;;;5058497;28;20204;-61
2022/04/28 03:13:53;;;;;;;4.03;2.50;;;14.10;72.30;;;;;;5059988;28;20549;-61
2022/04/28 03:16:19;;;;;;;2.85;2.55;;;14.10;72.30;;;;;;5061612;28;20016;-61
2022/04/28 03:18:45;;;;;;;2.65;2.40;;;14.00;72.30;;;;;;5063806;28;20075;-61
2022/04/28 03:21:11;;;;;;;3.10;2.50;;;14.00;72.30;;;;;;5084049;28;20648;-61
2022/04/28 03:23:37;;;;;;;2.95;2.65;;;14.00;72.40;;;;;;5051530;28;20031;-61
2022/04/28 03:26:03;;;;;;;3.25;2.88;;;14.00;72.50;;;;;;5082564;28;20032;-61
2022/04/28 03:28:29;;;;;;;3.28;2.65;;;13.90;72.40;;;;;;5063359;28;20356;-61
2022/04/28 03:30:55;;;;;;;3.17;2.60;;;13.90;72.40;;;;;;5033750;28;20032;-60
2022/04/28 03:33:20;;;;;;;2.70;2.50;;;13.90;72.60;;;;;;5050662;28;20378;-61
2022/04/28 03:35:46;;;;;;;3.25;2.60;;;13.90;72.70;;;;;;5059063;28;20517;-61
2022/04/28 03:38:11;;;;;;;3.42;2.75;;;13.90;72.70;;;;;;5085144;28;20036;-61
2022/04/28 03:40:38;;;;;;;3.17;2.72;;;13.80;72.80;;;;;;5084397;28;20605;-61
2022/04/28 03:43:04;;;;;;;3.20;2.90;;;13.80;72.80;;;;;;5058641;28;20058;-61
2022/04/28 03:45:30;;;;;;;2.95;2.70;;;13.80;72.80;;;;;;5066666;28;20032;-61
2022/04/28 03:47:56;;;;;;;3.13;2.80;;;13.80;72.90;;;;;;5060487;28;20473;-61
2022/04/28 03:50:21;;;;;;;4.32;2.40;;;13.80;72.90;;;;;;5056317;28;20044;-61
2022/04/28 03:52:47;;;;;;;4.53;3.15;;;13.80;72.90;;;;;;5062961;28;20032;-61
2022/04/28 03:55:12;;;;;;;4.03;2.40;;;13.70;72.90;;;;;;5084998;28;20043;-61
2022/04/28 03:57:38;;;;;;;3.03;2.72;;;13.70;73.00;;;;;;5083567;28;20032;-61
2022/04/28 04:00:04;;;;;;;3.28;2.60;;;13.70;73.00;;;;;;5084470;28;20522;-61
2022/04/28 04:02:30;;;;;;;3.28;2.97;;;13.70;73.10;;;;;;5084536;28;20048;-61
2022/04/28 04:04:56;;;;;;;3.35;2.90;;;13.70;73.20;;;;;;5063125;28;20070;-60
2022/04/28 04:07:21;;;;;;;5.43;3.35;;;13.60;73.20;;;;;;5060869;28;20076;-61
2022/04/28 04:09:47;;;;;;;7.72;3.00;;;13.60;73.30;;;;;;5060166;28;20040;-61
2022/04/28 04:12:12;;;;;;;3.53;2.72;;;13.60;73.30;;;;;;5061618;28;20408;-61
2022/04/28 04:14:38;;;;;;;4.97;2.97;;;13.60;73.40;;;;;;5061965;28;20146;-61
2022/04/28 04:17:04;;;;;;;3.40;3.10;;;13.50;73.40;;;;;;5083623;28;20031;-61
2022/04/28 04:19:29;;;;;;;3.17;2.80;;;13.50;73.50;;;;;;5064338;28;20187;-61
2022/04/28 04:21:55;;;;;;;3.53;3.22;;;13.50;73.60;;;;;;5066496;28;20035;-61
2022/04/28 04:24:20;;;;;;;3.20;2.90;;;13.50;73.60;;;;;;5083518;28;20035;-61
2022/04/28 04:26:46;;;;;;;4.18;3.20;;;13.50;73.60;;;;;;5084690;28;20028;-61
2022/04/28 04:29:12;;;;;;;3.40;3.10;;;13.50;73.60;;;;;;5082695;28;20032;-60
2022/04/28 04:34:23;;;;;;;3.40;3.10;;;13.40;73.60;;;;;;5082946;28;20115;-60
2022/04/28 04:36:48;;;;;;;3.30;2.70;;;13.40;73.60;;;;;;5083391;28;20020;-61
2022/04/28 04:39:14;;;;;;;4.15;3.10;;;13.40;73.70;;;;;;5057054;28;20020;-61
2022/04/28 04:41:39;;;;;;;3.50;3.20;;;13.40;73.80;;;;;;5079481;28;20089;-61
2022/04/28 04:44:05;;;;;;;3.92;3.50;;;13.30;73.80;;;;;;5084027;28;20024;-61
2022/04/28 04:46:30;;;;;;;3.08;2.88;;;13.30;74.00;;;;;;5082940;28;20100;-61
2022/04/28 04:48:56;;;;;;;3.65;3.17;;;13.30;74.00;;;;;;5083788;28;20500;-61
2022/04/28 04:51:21;;;;;;;4.80;3.08;;;13.30;74.10;;;;;;5083648;28;20044;-61
2022/04/28 04:53:47;;;;;;;4.45;3.30;;;13.30;74.00;;;;;;5058964;28;20107;-61
2022/04/28 04:56:12;;;;;;;4.30;3.72;;;13.30;74.10;;;;;;5083255;28;20042;-61
2022/04/28 04:58:38;;;;;;;3.67;3.22;;;13.30;74.20;;;;;;5083737;28;20024;-61
2022/04/28 05:01:04;;;;;;;5.03;3.83;;;13.20;74.20;;;;;;5081434;28;20495;-61
2022/04/28 05:03:29;;;;;;;3.90;3.53;;;13.20;74.30;;;;;;5076882;28;20223;-61
2022/04/28 05:05:55;;;;;;;3.90;3.50;;;13.20;74.30;;;;;;5083255;28;20036;-61
2022/04/28 05:08:20;;;;;;;4.03;3.22;;;13.20;74.30;;;;;;5053294;28;20032;-61
2022/04/28 05:10:46;;;;;;;3.97;3.58;;;13.20;74.30;;;;;;5046227;28;20056;-60
2022/04/28 05:13:11;;;;;;;3.88;3.47;;;13.20;74.40;;;;;;5058691;28;20028;-61
2022/04/28 05:15:37;;;;;;;3.80;3.50;;;13.20;74.40;;;;;;5082807;28;20035;-61
2022/04/28 05:18:02;;;;;;;5.68;3.42;;;13.20;74.50;;;;;;5083696;28;20097;-61
2022/04/28 05:20:28;;;;;;;4.05;3.65;;;13.20;74.50;;;;;;5081160;28;20021;-61
2022/04/28 05:22:53;;;;;;;3.80;3.35;;;13.20;74.40;;;;;;5063476;28;20063;-61
2022/04/28 05:25:19;;;;;;;3.90;3.45;;;13.20;74.50;;;;;;5058507;28;20476;-60
2022/04/28 05:27:44;;;;;;;3.95;3.55;;;13.10;74.50;;;;;;5064067;28;20024;-61
2022/04/28 05:30:10;;;;;;;3.42;3.13;;;13.10;74.40;;;;;;5080828;28;20556;-61
2022/04/28 05:32:35;;;;;;;4.30;3.65;;;13.20;74.50;;;;;;5055403;28;20064;-61
2022/04/28 05:35:01;;;;;;;4.25;3.85;;;13.10;74.50;;;;;;5036446;28;20438;-61
2022/04/28 05:37:27;;;;;;;3.92;3.50;;;13.10;74.60;;;;;;5059412;28;20486;-61
2022/04/28 05:39:52;;;;;;;5.82;3.72;;;13.10;74.60;;;;;;5081912;28;20028;-60
2022/04/28 05:42:18;;;;;;;3.55;3.10;;;13.10;74.60;;;;;;5082439;28;20024;-61
2022/04/28 05:47:28;;;;;;;4.35;3.95;;;13.10;74.70;;;;;;5081438;28;20483;-61
2022/04/28 05:49:53;;;;;;;7.72;4.07;;;13.10;74.60;;;;;;5080778;28;20119;-60
2022/04/28 05:52:19;;;;;;;5.78;3.78;;;13.10;74.60;;;;;;5056385;28;20098;-61
2022/04/28 05:54:48;;;;;;;6.15;4.78;;;13.10;74.60;;;;;;5058840;28;20032;-61
2022/04/28 05:57:13;;;;;;;6.05;4.65;;;13.10;74.60;;;;;;5045783;28;20139;-61
2022/04/28 05:59:39;;;;;;;5.22;4.57;;;13.10;74.60;;;;;;5059689;28;20119;-61
2022/04/28 06:02:06;;;;;;;4.72;4.30;;;13.10;74.80;;;;;;5056538;28;20063;-61
2022/04/28 06:04:32;;;;;;;5.13;4.35;;;13.10;74.80;;;;;;5029013;28;20027;-60
2022/04/28 06:06:58;;;;;;;4.70;4.30;;;13.00;74.80;;;;;;5029741;28;20032;-61
2022/04/28 06:09:23;;;;;;;5.50;4.32;;;13.10;74.90;;;;;;5058138;28;20035;-61
2022/04/28 06:11:49;;;;;;;4.72;4.22;;;12.90;74.70;;;;;;5082476;28;20032;-61
2022/04/28 06:14:14;;;;;;;5.22;4.72;;;13.00;74.80;;;;;;5079912;28;20032;-61
2022/04/28 06:16:41;;;;;;;5.13;4.63;;;13.10;75.00;;;;;;5054747;28;20219;-61
2022/04/28 06:19:07;;;;;;;6.75;4.93;;;13.10;74.80;;;;;;5080044;28;20039;-61
2022/04/28 06:21:32;;;;;;;6.60;5.25;;;13.10;74.90;;;;;;5051456;28;20032;-61
2022/04/28 06:23:58;;;;;;;6.40;5.57;;;13.10;74.90;;;;;;5042089;28;20555;-60
2022/04/28 06:26:23;;;;;;;5.95;5.05;;;13.10;75.00;;;;;;5076823;28;20024;-61
2022/04/28 06:28:49;;;;;;;5.10;4.60;;;13.00;75.00;;;;;;5082113;28;20055;-61
2022/04/28 06:31:14;;;;;;;5.40;4.75;;;13.10;75.00;;;;;;5078364;28;20047;-60
2022/04/28 06:33:40;;;;;;;5.82;5.22;;;13.10;75.00;;;;;;5060889;28;20150;-61
2022/04/28 06:36:06;;;;;;;6.95;4.85;;;13.10;75.00;;;;;;5062095;28;20035;-61
2022/04/28 06:38:31;;;;;;;5.65;5.00;;;13.10;75.00;;;;;;5064968;28;20020;-60
2022/04/28 06:40:57;;;;;;;5.85;4.78;;;13.10;75.00;;;;;;5065472;28;20028;-61
2022/04/28 06:43:23;;;;;;;5.95;5.32;;;13.10;75.00;;;;;;5061086;28;20149;-60
2022/04/28 06:48:32;;;;;;;8.18;5.60;;;13.10;75.20;;;;;;5081670;28;21340;-61
2022/04/28 06:50:58;;;;;;;5.25;4.43;;;13.10;75.00;;;;;;5069461;28;20036;-61
2022/04/28 06:53:23;;;;;;;7.60;5.60;;;13.10;75.10;;;;;;5058775;28;20035;-61
2022/04/28 06:55:49;;;;;;;8.80;5.70;;;13.10;75.00;;;;;;5061620;28;20035;-61
2022/04/28 06:58:15;;;;;;;7.05;5.78;;;13.10;75.00;;;;;;5081970;28;20214;-61
2022/04/28 07:00:40;;;;;;;8.02;4.70;;;13.10;75.10;;;;;;5080293;28;20028;-61
2022/04/28 07:03:06;;;;;;;8.70;5.43;;;13.10;75.00;;;;;;5084269;28;20083;-61
2022/04/28 07:05:33;;;;;;;7.22;5.63;;;13.10;75.00;;;;;;5061298;28;20040;-61
2022/04/28 07:07:58;;;;;;;9.25;5.43;;;13.10;75.10;;;;;;5061833;28;20031;-60
2022/04/28 07:10:24;;;;;;;8.40;5.20;;;13.10;75.20;;;;;;5083267;28;20399;-61
2022/04/28 07:12:50;;;;;;;9.45;5.97;;;13.10;75.20;;;;;;5082006;28;20036;-61
2022/04/28 07:15:15;;;;;;;10.52;4.80;;;13.10;75.10;;;;;;5042920;28;20126;-61
2022/04/28 07:17:41;;;;;;;6.28;5.68;;;13.10;75.10;;;;;;5068351;28;20947;-60
2022/04/28 07:20:07;;;;;;;9.95;5.35;;;13.10;75.20;;;;;;5077297;28;20035;-61
2022/04/28 07:22:33;;;;;;;9.02;5.45;;;13.10;75.10;;;;;;5059595;28;20123;-61
2022/04/28 07:24:58;;;;;;;12.18;5.50;;;13.10;75.10;;;;;;5077323;28;20670;-61
2022/04/28 07:27:24;;;;;;;7.72;5.80;;;13.10;75.10;;;;;;5063959;28;20044;-61
2022/04/28 07:29:50;;;;;;;7.47;5.45;;;13.10;75.10;;;;;;5073959;28;20046;-61
2022/04/28 07:32:16;;;;;;;10.18;6.07;;;13.10;75.20;;;;;;5083618;28;20110;-61
2022/04/28 07:34:41;;;;;;;8.95;6.55;;;13.10;75.10;;;;;;5059618;28;20127;-61
2022/04/28 07:37:07;;;;;;;7.70;6.82;;;13.10;75.30;;;;;;5079753;28;20036;-60
2022/04/28 07:39:32;;;;;;;7.03;6.00;;;13.10;75.60;;;;;;5081903;28;20123;-61
2022/04/28 07:41:58;;;;;;;8.18;6.65;;;13.00;75.50;;;;;;5078209;28;20047;-60
2022/04/28 07:44:23;;;;;;;8.88;7.13;;;13.10;75.60;;;;;;5037331;28;20058;-61
2022/04/28 07:46:49;;;;;;;12.65;6.45;;;13.00;75.60;;;;;;5077805;28;20562;-61
2022/04/28 07:49:14;;;;;;;9.00;6.65;;;13.10;75.90;;;;;;5056593;28;20051;-61
2022/04/28 07:51:40;;;;;;;12.05;7.38;;;13.10;76.10;;;;;;5032222;28;20200;-60
2022/04/28 07:54:05;;;;;;;11.82;6.95;;;13.00;76.10;;;;;;5080123;28;20035;-61
2022/04/28 07:56:31;;;;;;;8.27;6.30;;;13.10;76.30;;;;;;5046302;28;20028;-61
2022/04/28 07:58:56;;;;;;;7.47;6.55;;;13.10;76.50;;;;;;5080294;28;20499;-60
2022/04/28 08:01:22;;;;;;;12.00;6.88;;;13.10;76.60;;;;;;5071111;28;20044;-60
2022/04/28 08:03:48;;;;;;;11.48;6.40;;;13.00;76.80;;;;;;5046461;28;20032;-60
2022/04/28 08:06:14;;;;;;;7.95;6.80;;;13.10;77.00;;;;;;5058075;28;20038;-60
2022/04/28 08:08:42;;;;;;;11.38;6.68;;;13.10;77.10;;;;;;5040174;28;20127;-60
2022/04/28 08:11:08;;;;;;;12.55;7.35;;;13.10;76.90;;;;;;5076559;28;20035;-61
2022/04/28 08:13:34;;;;;;;11.57;6.65;;;13.10;77.30;;;;;;5074280;28;20036;-61
2022/04/28 08:16:01;;;;;;;9.93;7.07;;;13.20;77.30;;;;;;5076892;28;20024;-61
2022/04/28 08:18:26;;;;;;;8.85;7.00;;;13.20;77.60;;;;;;5045203;28;20029;-61
2022/04/28 08:20:52;;;;;;;8.82;7.43;;;13.20;77.90;;;;;;5055768;28;20471;-61
2022/04/28 08:23:17;;;;;;;19.80;7.57;;;13.20;78.10;;;;;;5083067;28;20549;-60
2022/04/28 08:25:43;;;;;;;10.35;7.57;;;13.20;78.10;;;;;;5055237;28;20427;-61
2022/04/28 08:28:09;;;;;;;15.70;8.02;;;13.20;78.10;;;;;;5075864;28;20563;-61
2022/04/28 08:30:34;;;;;;;9.48;6.97;;;13.30;78.40;;;;;;5079045;28;20025;-60
2022/04/28 08:33:01;;;;;;;9.52;6.90;;;13.30;78.40;;;;;;5036511;28;20732;-61
2022/04/28 08:35:28;;;;;;;11.80;7.72;;;13.30;77.60;;;;;;5038284;28;20769;-60
2022/04/28 08:37:53;;;;;;;15.32;7.90;;;13.30;77.50;;;;;;5062034;28;20039;-60
2022/04/28 08:40:19;;;;;;;10.38;7.35;;;13.30;77.70;;;;;;5082996;28;20099;-61
2022/04/28 08:42:44;;;;;;;10.38;7.10;;;13.30;77.70;;;;;;5056240;28;20043;-60
2022/04/28 08:45:10;;;;;;;12.73;7.05;;;13.30;77.60;;;;;;5053930;28;20081;-60
2022/04/28 08:47:35;;;;;;;8.27;7.38;;;13.30;77.70;;;;;;5057724;28;20665;-60
2022/04/28 08:50:01;;;;;;;7.68;6.88;;;13.30;77.80;;;;;;5077787;28;20321;-61
2022/04/28 08:52:27;;;;;;;10.48;7.43;;;13.30;78.00;;;;;;5057941;28;20206;-61
2022/04/28 08:54:55;;;;;;;9.27;8.05;;;13.30;78.70;;;;;;5055597;28;20074;-60
2022/04/28 08:57:24;;;;;;;8.23;7.43;;;13.30;78.40;;;;;;5077005;28;20058;-60
2022/04/28 08:59:51;;;;;;;9.40;7.95;;;13.30;78.50;;;;;;5071763;28;20045;-61
2022/04/28 09:02:22;;;;;;;13.25;9.00;;;13.30;78.50;;;;;;5054014;28;20043;-60
2022/04/28 09:04:48;;;;;;;11.27;9.65;;;13.30;78.60;;;;;;5047068;28;20042;-60
2022/04/28 09:07:13;;;;;;;13.88;9.30;;;13.40;78.90;;;;;;5058751;28;20372;-60
2022/04/28 09:09:39;;;;;;;10.88;8.80;;;13.40;78.80;;;;;;5079142;28;20059;-61
2022/04/28 09:12:06;;;;;;;13.95;8.77;;;13.50;78.80;;;;;;5038474;28;20048;-60
2022/04/28 09:14:32;;;;;;;13.43;8.75;;;13.40;78.90;;;;;;5080540;28;20028;-60
2022/04/28 09:17:03;;;;;;;14.52;9.15;;;13.50;78.90;;;;;;5058375;28;20031;-60
2022/04/28 09:19:35;;;;;;;16.33;9.05;;;13.50;78.80;;;;;;5062947;28;20112;-61
2022/04/28 09:22:13;;;;;;;10.13;7.85;;;13.50;78.80;;;;;;5078933;28;20472;-60
2022/04/28 09:24:40;;;;;;;13.07;8.38;;;13.50;78.30;;;;;;5061860;28;20465;-61
2022/04/28 09:27:08;;;;;;;10.10;7.53;;;13.50;78.30;;;;;;5059022;28;20434;-61
2022/04/28 09:29:36;;;;;;;13.38;7.80;;;13.50;78.10;;;;;;5030504;28;20165;-63
2022/04/28 09:32:02;;;;;;;13.75;7.13;;;13.50;78.10;;;;;;5055028;28;20061;-60
2022/04/28 09:34:28;;;;;;;19.02;8.38;;;13.60;78.50;;;;;;5045245;28;21263;-60
2022/04/28 09:36:56;;;;;;;18.70;8.07;;;13.60;78.50;;;;;;5080292;28;20038;-65
2022/04/28 09:42:31;;;;;;;19.98;8.70;;;13.70;78.60;;;;;;5060228;28;20047;-60
2022/04/28 09:44:58;;;;;;;26.90;8.88;;;13.70;78.60;;;;;;5078167;28;20388;-61
2022/04/28 09:47:25;;;;;;;16.40;9.13;;;13.70;78.30;;;;;;5037698;28;20020;-61
2022/04/28 09:49:55;;;;;;;61.78;13.23;;;13.80;78.10;;;;;;5053876;28;20051;-60
2022/04/28 09:52:24;;;;;;;27.00;9.00;;;13.80;78.00;;;;;;5060622;28;20068;-61
2022/04/28 09:54:50;;;;;;;20.65;9.55;;;13.90;78.40;;;;;;5077908;28;20035;-61
2022/04/28 09:57:17;;;;;;;13.32;8.38;;;13.90;78.30;;;;;;5060041;28;20169;-60
2022/04/28 09:59:43;;;;;;;15.60;8.02;;;14.00;78.20;;;;;;5061847;28;20066;-60
2022/04/28 10:02:11;;;;;;;10.30;7.93;;;14.00;78.20;;;;;;5031783;28;20124;-61
2022/04/28 10:04:36;;;;;;;16.80;8.25;;;14.00;78.20;;;;;;5036926;28;20063;-62
2022/04/28 10:07:02;;;;;;;14.32;7.47;;;14.00;78.30;;;;;;5022714;28;20021;-64
2022/04/28 10:09:28;;;;;;;13.68;7.30;;;14.00;78.30;;;;;;5022757;28;20119;-62
2022/04/28 10:11:53;;;;;;;16.95;9.75;;;14.00;78.30;;;;;;5025543;28;20043;-63
2022/04/28 10:14:19;;;;;;;23.90;10.77;;;14.00;78.10;;;;;;5046741;28;20027;-63
2022/04/28 10:16:45;;;;;;;13.10;9.55;;;14.00;78.20;;;;;;5027121;28;20082;-61
2022/04/28 10:19:19;;;;;;;15.15;8.98;;;14.00;78.20;;;;;;5035834;28;20035;-61
2022/04/28 10:21:50;;;;;;;23.70;10.00;;;14.10;78.20;;;;;;5015943;28;20944;-62
2022/04/28 10:33:10;;;;;;;14.02;8.35;;;14.20;78.20;;;;;;5036274;28;20047;-61
2022/04/28 10:35:55;;;;;;;14.00;8.32;;;14.20;78.10;;;;;;5031070;28;20028;-62
2022/04/28 10:38:38;;;;;;;13.23;9.93;;;14.30;78.00;;;;;;5022787;28;20060;-61
2022/04/28 10:41:06;;;;;;;15.95;9.02;;;14.30;77.90;;;;;;5020580;28;20469;-64
2022/04/28 10:43:32;;;;;;;12.35;8.18;;;14.40;77.60;;;;;;5025722;28;20037;-61
2022/04/28 10:46:22;;;;;;;16.13;8.30;;;14.40;77.50;;;;;;5039961;28;20138;-61
2022/04/28 10:48:52;;;;;;;13.98;8.52;;;14.40;77.40;;;;;;5048883;28;20068;-61
2022/04/28 10:51:26;;;;;;;15.10;8.02;;;14.50;77.10;;;;;;5041345;28;20112;-61
2022/04/28 10:54:11;;;;;;;19.55;8.10;;;14.50;77.10;;;;;;5061648;28;20025;-61
2022/04/28 10:56:40;;;;;;;29.40;8.43;;;14.60;77.00;;;;;;5022854;28;20040;-61
2022/04/28 10:59:32;;;;;;;15.90;8.02;;;14.60;76.80;;;;;;5045705;28;20029;-62
2022/04/28 11:02:10;;;;;;;10.55;6.43;;;14.70;76.70;;;;;;5023825;28;20047;-61
2022/04/28 11:04:35;;;;;;;9.40;6.10;;;14.80;76.20;;;;;;5066974;28;20028;-62
2022/04/28 11:07:05;;;;;;;8.85;6.00;;;14.80;75.40;;;;;;5082135;28;20039;-62
2022/04/28 11:09:42;;;;;;;10.18;6.35;;;14.90;74.70;;;;;;5061698;28;20099;-61
2022/04/28 11:12:17;;;;;;;6.90;5.25;;;15.00;74.30;;;;;;5023959;28;20457;-61
2022/04/28 11:14:52;;;;;;;8.98;5.15;;;15.10;73.90;;;;;;5057001;28;20048;-61
2022/04/28 11:17:19;;;;;;;9.30;5.10;;;15.10;73.70;;;;;;5062436;28;20029;-61
2022/04/28 11:19:45;;;;;;;6.70;5.18;;;15.20;73.70;;;;;;5046897;28;20031;-62
2022/04/28 11:22:14;;;;;;;6.35;5.00;;;15.30;73.60;;;;;;5076888;28;20051;-61
2022/04/28 11:24:40;;;;;;;7.05;4.55;;;15.40;73.20;;;;;;5055980;28;20062;-61
2022/04/28 11:27:06;;;;;;;6.05;4.50;;;15.40;72.60;;;;;;5082461;28;20027;-62
2022/04/28 11:29:31;;;;;;;10.65;4.45;;;15.50;72.30;;;;;;5045140;28;20036;-61
2022/04/28 11:31:59;;;;;;;7.45;3.88;;;15.60;72.00;;;;;;5047125;28;20071;-62
2022/04/28 11:34:24;;;;;;;9.80;4.50;;;15.70;71.50;;;;;;5078296;28;20058;-61
2022/04/28 11:36:50;;;;;;;8.48;4.57;;;15.80;71.40;;;;;;5080551;28;20351;-61
2022/04/28 11:39:15;;;;;;;12.10;4.35;;;15.90;71.20;;;;;;5059312;28;20088;-61
2022/04/28 11:41:42;;;;;;;11.98;4.70;;;16.00;71.00;;;;;;5061698;28;20130;-61
2022/04/28 11:44:08;;;;;;;8.25;4.18;;;16.10;70.60;;;;;;5044205;28;20614;-61
2022/04/28 11:46:35;;;;;;;9.18;4.28;;;16.20;70.50;;;;;;5077065;28;20166;-61
2022/04/28 11:49:00;;;;;;;13.80;4.38;;;16.30;70.30;;;;;;5059312;28;20043;-61
2022/04/28 11:51:26;;;;;;;7.72;3.95;;;16.40;70.10;;;;;;5063267;28;20032;-61
2022/04/28 11:53:53;;;;;;;13.02;4.32;;;16.50;70.10;;;;;;5059735;28;20024;-62
2022/04/28 11:56:20;;;;;;;19.92;4.13;;;16.60;69.90;;;;;;5046289;28;20655;-61
2022/04/28 11:58:50;;;;;;;14.30;4.13;;;16.60;69.80;;;;;;5045633;28;20028;-61
2022/04/28 12:01:16;;;;;;;24.05;4.63;;;16.70;69.50;;;;;;5043936;28;20055;-61
2022/04/28 12:04:10;;;;;;;24.38;4.50;;;16.70;69.00;;;;;;5043936;28;20103;-62
2022/04/28 12:06:37;;;;;;;13.73;3.97;;;16.80;68.90;;;;;;5059198;28;20479;-62
2022/04/28 12:14:22;;;;;;;21.00;4.15;;;16.90;68.70;;;;;;5064444;28;20078;-62
2022/04/28 12:14:34;;;;;;;12.02;3.97;;;17.20;68.20;;;;;;5053130;28;20047;-61
2022/04/28 12:19:51;;;;;;;14.80;3.05;;;17.20;67.60;;;;;;5047400;28;20674;-61
2022/04/28 12:22:37;;;;;;;5.88;2.90;;;17.30;67.80;;;;;;5045832;28;20542;-61
2022/04/28 12:25:10;;;;;;;9.70;3.00;;;17.40;67.30;;;;;;5079865;28;20020;-61
2022/04/28 12:27:44;;;;;;;10.05;3.17;;;17.50;66.60;;;;;;5046240;28;20139;-61
2022/04/28 12:30:16;;;;;;;8.93;3.10;;;17.60;66.50;;;;;;5061045;28;20028;-62
2022/04/28 12:32:44;;;;;;;16.08;3.33;;;17.70;66.50;;;;;;5061646;28;20036;-61
2022/04/28 12:35:10;;;;;;;16.65;3.10;;;17.80;66.90;;;;;;5046978;28;20093;-61
2022/04/28 12:37:38;;;;;;;12.75;3.90;;;17.80;66.60;;;;;;5044736;28;22238;-62
2022/04/28 12:40:04;;;;;;;10.18;2.83;;;18.00;66.20;;;;;;5058716;28;20043;-62
2022/04/28 12:42:44;;;;;;;7.85;3.20;;;18.00;66.00;;;;;;5044844;28;20051;-61
2022/04/28 12:45:12;;;;;;;12.77;3.33;;;18.10;65.10;;;;;;5057080;28;20040;-61
2022/04/28 12:47:39;;;;;;;11.30;3.20;;;18.20;64.80;;;;;;5055648;28;20020;-61
2022/04/28 12:50:22;;;;;;;10.30;3.33;;;18.30;64.50;;;;;;5042097;28;20177;-62
2022/04/28 12:52:47;;;;;;;10.63;2.50;;;18.40;64.30;;;;;;5041686;28;20051;-62
2022/04/28 12:55:13;;;;;;;13.88;2.85;;;18.50;64.10;;;;;;5058434;28;20087;-62
2022/04/28 12:57:38;;;;;;;13.43;2.88;;;18.50;63.90;;;;;;5060739;28;20036;-61
2022/04/28 13:00:08;;;;;;;8.23;2.78;;;18.60;63.70;;;;;;5057817;28;20028;-62
2022/04/28 13:02:33;;;;;;;12.82;3.05;;;18.70;63.30;;;;;;5057395;28;20089;-61
2022/04/28 13:05:13;;;;;;;10.00;2.97;;;18.80;62.60;;;;;;5044293;28;20485;-62
2022/04/28 13:07:42;;;;;;;12.68;2.92;;;18.90;62.60;;;;;;5046334;28;20668;-62
2022/04/28 13:10:08;;;;;;;13.10;3.08;;;19.00;62.50;;;;;;5044329;28;20076;-62
2022/04/28 13:12:34;;;;;;;14.52;2.60;;;19.10;62.20;;;;;;5046947;28;20056;-61
2022/04/28 13:15:02;;;;;;;6.68;2.65;;;19.10;62.10;;;;;;5054521;28;20028;-62
2022/04/28 13:17:28;;;;;;;51.75;5.47;;;19.20;61.80;;;;;;5057321;28;20073;-62